createdAt,value
2022-10-11T00:00:31.086Z,12.66
2022-10-11T00:06:08.010Z,12.67
2022-10-11T00:11:30.332Z,12.66
2022-10-11T00:16:52.157Z,12.65
2022-10-11T00:22:13.685Z,12.65
2022-10-11T00:27:35.662Z,12.66
2022-10-11T00:32:58.729Z,12.68
2022-10-11T00:38:20.681Z,12.69
2022-10-11T00:43:43.170Z,12.70
2022-10-11T00:49:11.858Z,12.69
2022-10-11T00:54:37.248Z,12.68
2022-10-11T00:59:59.034Z,12.66
2022-10-11T01:05:29.997Z,12.64
2022-10-11T01:10:52.199Z,12.64
2022-10-11T01:16:26.499Z,12.62
2022-10-11T01:21:57.559Z,12.60
2022-10-11T01:27:44.560Z,12.59
2022-10-11T01:33:30.390Z,12.63
2022-10-11T01:39:09.682Z,12.73
2022-10-11T01:44:34.479Z,12.86
2022-10-11T01:50:00.265Z,12.92
2022-10-11T01:55:31.037Z,12.94
2022-10-11T02:00:58.833Z,12.92
2022-10-11T02:06:41.373Z,12.88
2022-10-11T02:12:06.920Z,12.85
2022-10-11T02:17:32.393Z,12.81
2022-10-11T02:23:00.071Z,12.77
2022-10-11T02:28:25.354Z,12.75
2022-10-11T02:33:53.819Z,12.73
2022-10-11T02:39:25.161Z,12.69
2022-10-11T02:44:53.759Z,12.66
2022-10-11T02:50:16.076Z,12.62
2022-10-11T02:55:37.772Z,12.59
2022-10-11T03:00:59.873Z,12.56
2022-10-11T03:06:21.779Z,12.53
2022-10-11T03:11:43.709Z,12.48
2022-10-11T03:17:31.144Z,12.48
2022-10-11T03:22:47.213Z,12.56
2022-10-11T03:28:09.311Z,12.67
2022-10-11T03:33:31.451Z,12.77
2022-10-11T03:38:53.177Z,12.82
2022-10-11T03:44:14.806Z,12.84
2022-10-11T03:49:39.995Z,12.85
2022-10-11T03:55:05.789Z,12.85
2022-10-11T04:00:27.621Z,12.85
2022-10-11T04:05:49.748Z,12.86
2022-10-11T04:11:11.677Z,12.85
2022-10-11T04:16:33.237Z,12.77
2022-10-11T04:21:55.028Z,12.67
2022-10-11T04:27:16.564Z,12.71
2022-10-11T04:32:38.027Z,12.68
2022-10-11T04:38:00.050Z,12.68
2022-10-11T04:43:21.899Z,12.64
2022-10-11T04:48:43.376Z,12.64
2022-10-11T04:54:05.525Z,12.70
2022-10-11T04:59:27.336Z,12.71
2022-10-11T05:04:48.894Z,12.55
2022-10-11T05:10:10.754Z,12.52
2022-10-11T05:15:32.563Z,12.55
2022-10-11T05:21:07.845Z,12.53
2022-10-11T05:26:29.949Z,12.54
2022-10-11T05:31:51.485Z,12.51
2022-10-11T05:37:13.081Z,12.47
2022-10-11T05:42:34.914Z,12.48
2022-10-11T05:47:56.339Z,12.53
2022-10-11T05:53:17.969Z,12.55
2022-10-11T05:58:39.797Z,12.53
2022-10-11T06:04:02.704Z,12.53
2022-10-11T06:09:24.304Z,12.57
2022-10-11T06:14:45.980Z,12.59
2022-10-11T06:20:08.536Z,12.61
2022-10-11T06:25:30.200Z,12.64
2022-10-11T06:30:51.673Z,12.67
2022-10-11T06:36:15.008Z,12.72
2022-10-11T06:41:36.642Z,12.78
2022-10-11T06:46:58.172Z,13.07
2022-10-11T06:52:20.188Z,13.32
2022-10-11T06:57:41.757Z,13.49
2022-10-11T07:03:03.636Z,13.54
2022-10-11T07:08:25.517Z,13.52
2022-10-11T07:13:52.522Z,13.69
2022-10-11T07:19:14.356Z,13.78
2022-10-11T07:24:36.179Z,13.98
2022-10-11T07:29:57.490Z,14.12
2022-10-11T07:35:19.433Z,14.26
2022-10-11T07:40:43.099Z,14.42
2022-10-11T07:46:05.871Z,14.50
2022-10-11T07:51:27.772Z,14.43
2022-10-11T07:56:49.359Z,14.33
2022-10-11T08:02:14.250Z,14.16
2022-10-11T08:07:36.706Z,14.02
2022-10-11T08:13:04.467Z,13.95
2022-10-11T08:18:26.357Z,13.80
2022-10-11T08:23:48.268Z,13.70
2022-10-11T08:29:10.046Z,13.69
2022-10-11T08:34:31.948Z,13.70
2022-10-11T08:39:53.266Z,13.54
2022-10-11T08:45:25.095Z,13.37
2022-10-11T08:50:49.730Z,13.24
2022-10-11T08:56:15.332Z,13.17
2022-10-11T09:01:41.090Z,13.18
2022-10-11T09:07:05.778Z,13.26
2022-10-11T09:12:47.561Z,13.36
2022-10-11T09:18:41.170Z,13.48
2022-10-11T09:24:15.212Z,13.58
2022-10-11T09:29:51.709Z,13.65
2022-10-11T09:35:17.699Z,13.73
2022-10-11T09:40:51.926Z,13.66
2022-10-11T09:46:21.530Z,13.61
2022-10-11T09:51:47.521Z,13.63
2022-10-11T09:57:24.670Z,13.65
2022-10-11T10:02:49.493Z,13.81
2022-10-11T10:08:11.481Z,14.01
2022-10-11T10:13:43.753Z,14.13
2022-10-11T10:19:08.642Z,14.05
2022-10-11T10:24:37.922Z,14.01
2022-10-11T10:30:08.923Z,14.02
2022-10-11T10:35:39.423Z,14.14
2022-10-11T10:41:06.923Z,14.18
2022-10-11T10:46:46.689Z,14.26
2022-10-11T10:52:46.604Z,14.35
2022-10-11T10:58:34.911Z,14.36
2022-10-11T11:04:08.076Z,14.33
2022-10-11T11:09:35.450Z,14.46
2022-10-11T11:15:08.750Z,14.64
2022-10-11T11:21:04.136Z,14.82
2022-10-11T11:26:47.127Z,14.81
2022-10-11T11:32:12.894Z,14.72
2022-10-11T11:37:37.791Z,14.71
2022-10-11T11:43:03.312Z,14.71
2022-10-11T11:48:26.588Z,14.68
2022-10-11T11:54:22.399Z,14.80
2022-10-11T11:59:53.188Z,14.95
2022-10-11T12:05:18.382Z,15.18
2022-10-11T12:10:49.214Z,15.35
2022-10-11T12:16:13.624Z,15.46
2022-10-11T12:21:41.168Z,15.54
2022-10-11T12:27:36.820Z,15.56
2022-10-11T12:33:21.682Z,15.66
2022-10-11T12:38:43.820Z,15.73
2022-10-11T12:44:26.393Z,15.81
2022-10-11T12:49:59.446Z,15.90
2022-10-11T12:55:34.165Z,15.90
2022-10-11T13:00:56.386Z,15.93
2022-10-11T13:06:19.674Z,15.94
2022-10-11T13:12:02.538Z,15.88
2022-10-11T13:17:37.304Z,15.82
2022-10-11T13:23:00.485Z,15.80
2022-10-11T13:28:22.815Z,15.72
2022-10-11T13:33:45.392Z,15.72
2022-10-11T13:39:08.060Z,15.68
2022-10-11T13:44:32.643Z,15.63
2022-10-11T13:50:34.632Z,15.64
2022-10-11T13:56:04.561Z,15.61
2022-10-11T14:01:28.465Z,15.53
2022-10-11T14:07:02.487Z,15.46
2022-10-11T14:12:33.847Z,15.36
2022-10-11T14:17:55.580Z,15.27
2022-10-11T14:23:17.006Z,15.21
2022-10-11T14:28:39.065Z,15.15
2022-10-11T14:34:01.267Z,15.05
2022-10-11T14:39:24.958Z,15.02
2022-10-11T14:44:46.535Z,14.95
2022-10-11T14:50:30.445Z,14.80
2022-10-11T14:55:52.569Z,14.66
2022-10-11T15:01:16.253Z,14.61
2022-10-11T15:06:40.139Z,14.55
2022-10-11T15:12:01.867Z,14.48
2022-10-11T15:17:23.502Z,14.38
2022-10-11T15:22:45.162Z,14.22
2022-10-11T15:28:07.864Z,14.10
2022-10-11T15:33:29.685Z,13.95
2022-10-11T15:38:51.715Z,13.84
2022-10-11T15:44:13.380Z,13.74
2022-10-11T15:49:35.573Z,13.63
2022-10-11T15:54:57.513Z,13.49
2022-10-11T16:00:22.269Z,13.34
2022-10-11T16:05:44.414Z,13.13
2022-10-11T16:11:07.478Z,12.90
2022-10-11T16:16:29.193Z,12.69
2022-10-11T16:21:50.664Z,12.50
2022-10-11T16:27:16.436Z,12.27
2022-10-11T16:32:40.959Z,12.01
2022-10-11T16:38:02.681Z,11.78
2022-10-11T16:43:24.402Z,11.52
2022-10-11T16:48:46.106Z,11.29
2022-10-11T16:54:08.158Z,11.16
2022-10-11T16:59:29.927Z,10.93
2022-10-11T17:04:54.124Z,10.70
2022-10-11T17:10:16.234Z,10.55
2022-10-11T17:15:39.791Z,10.48
2022-10-11T17:21:08.086Z,10.42
2022-10-11T17:26:29.616Z,10.25
2022-10-11T17:31:51.606Z,10.08
2022-10-11T17:37:13.226Z,9.99
2022-10-11T17:42:34.766Z,9.86
2022-10-11T17:47:56.683Z,9.75
2022-10-11T17:53:18.716Z,9.75
2022-10-11T17:58:40.833Z,9.74
2022-10-11T18:04:04.622Z,9.74
2022-10-11T18:09:27.271Z,9.68
2022-10-11T18:14:48.938Z,9.63
2022-10-11T18:20:13.778Z,9.59
2022-10-11T18:25:37.928Z,9.46
2022-10-11T18:31:00.672Z,9.32
2022-10-11T18:36:28.539Z,9.26
2022-10-11T18:41:49.926Z,9.29
2022-10-11T18:47:11.823Z,9.35
2022-10-11T18:52:33.583Z,9.31
2022-10-11T18:57:55.321Z,9.15
2022-10-11T19:03:17.359Z,8.99
2022-10-11T19:08:38.971Z,8.90
2022-10-11T19:14:08.917Z,8.80
2022-10-11T19:19:31.107Z,8.54
2022-10-11T19:24:52.923Z,8.49
2022-10-11T19:30:14.865Z,8.49
2022-10-11T19:35:36.467Z,8.53
2022-10-11T19:41:00.120Z,8.46
2022-10-11T19:52:03.994Z,8.42
2022-10-11T19:57:26.071Z,8.50
2022-10-11T20:02:48.971Z,8.52
2022-10-11T20:08:10.574Z,8.38
2022-10-11T20:13:34.987Z,8.26
2022-10-11T20:19:00.922Z,8.20
2022-10-11T20:24:22.565Z,8.21
2022-10-11T20:29:44.431Z,8.16
2022-10-11T20:35:06.360Z,8.14
2022-10-11T20:40:28.147Z,8.05
2022-10-11T20:46:10.562Z,7.85
2022-10-11T20:51:34.217Z,7.77
2022-10-11T20:56:57.513Z,7.83
2022-10-11T21:02:19.395Z,7.78
2022-10-11T21:07:41.060Z,7.74
2022-10-11T21:13:03.050Z,7.43
2022-10-11T21:18:25.481Z,7.35
2022-10-11T21:23:46.950Z,7.40
2022-10-11T21:29:08.818Z,7.44
2022-10-11T21:34:30.569Z,7.47
2022-10-11T21:39:52.159Z,7.43
2022-10-11T21:45:13.751Z,7.42
2022-10-11T21:50:35.359Z,7.29
2022-10-11T21:56:01.203Z,7.14
2022-10-11T22:01:23.607Z,7.05
2022-10-11T22:06:45.573Z,6.98
2022-10-11T22:12:07.686Z,6.95
2022-10-11T22:17:29.468Z,6.70
2022-10-11T22:22:50.930Z,6.58
2022-10-11T22:28:12.826Z,6.59
2022-10-11T22:33:35.087Z,6.51
2022-10-11T22:38:56.817Z,6.38
2022-10-11T22:44:18.538Z,6.31
2022-10-11T22:49:39.788Z,6.52
2022-10-11T22:55:01.768Z,6.73
2022-10-11T23:00:23.384Z,6.78
2022-10-11T23:05:54.534Z,6.66
2022-10-11T23:11:16.737Z,6.39
2022-10-11T23:16:38.272Z,6.37
2022-10-11T23:22:00.247Z,6.39
2022-10-11T23:27:21.925Z,6.27
2022-10-11T23:32:43.852Z,5.96
2022-10-11T23:38:05.479Z,5.79
2022-10-11T23:43:27.176Z,5.66
2022-10-11T23:48:48.930Z,5.54
2022-10-11T23:54:10.548Z,5.70
2022-10-11T23:59:32.395Z,5.90
